createdAt,value
2023-02-20T00:00:54.568Z,64.50
2023-02-20T00:03:21.505Z,64.50
2023-02-20T00:05:48.270Z,64.60
2023-02-20T00:08:15.022Z,64.70
2023-02-20T00:10:41.769Z,64.60
2023-02-20T00:13:08.578Z,64.70
2023-02-20T00:15:35.351Z,64.60
2023-02-20T00:18:03.500Z,64.70
2023-02-20T00:20:32.005Z,64.70
2023-02-20T00:22:58.741Z,64.70
2023-02-20T00:25:25.386Z,64.90
2023-02-20T00:27:52.194Z,64.90
2023-02-20T00:30:22.552Z,65.00
2023-02-20T00:32:52.979Z,65.00
2023-02-20T00:35:20.831Z,65.10
2023-02-20T00:37:47.770Z,65.70
2023-02-20T00:40:16.688Z,65.20
2023-02-20T00:42:44.492Z,65.20
2023-02-20T00:45:12.086Z,65.10
2023-02-20T00:47:38.839Z,65.10
2023-02-20T00:50:06.957Z,64.90
2023-02-20T00:52:33.664Z,65.00
2023-02-20T00:55:00.373Z,65.00
2023-02-20T00:57:27.190Z,65.10
2023-02-20T00:59:53.905Z,65.00
2023-02-20T01:02:20.905Z,64.90
2023-02-20T01:04:47.680Z,64.90
2023-02-20T01:07:14.395Z,64.90
2023-02-20T01:09:41.201Z,65.00
2023-02-20T01:12:07.940Z,65.00
2023-02-20T01:14:34.827Z,65.10
2023-02-20T01:17:02.017Z,65.00
2023-02-20T01:19:28.981Z,65.10
2023-02-20T01:21:57.696Z,65.20
2023-02-20T01:24:24.451Z,65.40
2023-02-20T01:26:51.202Z,65.40
2023-02-20T01:29:18.225Z,65.50
2023-02-20T01:31:49.990Z,66.20
2023-02-20T01:34:17.494Z,65.70
2023-02-20T01:36:53.106Z,65.60
2023-02-20T01:39:25.370Z,65.60
2023-02-20T01:42:00.045Z,65.60
2023-02-20T01:44:30.302Z,65.60
2023-02-20T01:46:59.343Z,65.60
2023-02-20T01:49:39.604Z,65.70
2023-02-20T01:52:15.357Z,65.80
2023-02-20T01:54:45.548Z,65.90
2023-02-20T01:57:18.748Z,66.10
2023-02-20T01:59:47.741Z,66.50
2023-02-20T02:02:15.053Z,66.70
2023-02-20T02:04:44.912Z,66.90
2023-02-20T02:07:12.245Z,67.30
2023-02-20T02:10:02.398Z,67.50
2023-02-20T02:12:29.633Z,67.80
2023-02-20T02:14:56.326Z,67.80
2023-02-20T02:17:37.797Z,68.00
2023-02-20T02:21:01.812Z,68.30
2023-02-20T02:24:00.435Z,68.80
2023-02-20T02:26:43.559Z,68.40
2023-02-20T02:29:28.170Z,68.10
2023-02-20T02:32:19.739Z,68.30
2023-02-20T02:35:05.032Z,68.60
2023-02-20T02:37:42.082Z,68.80
2023-02-20T02:40:20.428Z,69.40
2023-02-20T02:43:01.229Z,69.70
2023-02-20T02:45:34.145Z,69.70
2023-02-20T02:48:06.816Z,69.80
2023-02-20T02:50:38.085Z,69.80
2023-02-20T02:53:07.899Z,69.90
2023-02-20T02:55:34.942Z,70.00
2023-02-20T02:58:03.336Z,70.00
2023-02-20T03:00:42.326Z,70.00
2023-02-20T03:03:23.209Z,70.00
2023-02-20T03:05:57.559Z,70.10
2023-02-20T03:08:52.809Z,70.20
2023-02-20T03:11:21.766Z,70.40
2023-02-20T03:14:24.419Z,70.30
2023-02-20T03:17:20.912Z,70.40
2023-02-20T03:19:51.530Z,70.40
2023-02-20T03:22:26.994Z,70.50
2023-02-20T03:24:58.480Z,70.60
2023-02-20T03:27:27.866Z,70.60
2023-02-20T03:29:58.970Z,70.80
2023-02-20T03:32:47.186Z,70.80
2023-02-20T03:35:34.616Z,70.80
2023-02-20T03:38:22.649Z,70.60
2023-02-20T03:41:09.819Z,70.60
2023-02-20T03:43:39.886Z,70.70
2023-02-20T03:46:15.316Z,70.80
2023-02-20T03:48:52.375Z,70.60
2023-02-20T03:51:20.651Z,70.60
2023-02-20T03:53:47.998Z,70.70
2023-02-20T03:56:30.176Z,70.60
2023-02-20T03:59:22.934Z,70.70
2023-02-20T04:01:56.016Z,70.90
2023-02-20T04:04:29.905Z,70.90
2023-02-20T04:06:57.688Z,71.00
2023-02-20T04:09:28.768Z,70.80
2023-02-20T04:12:04.418Z,70.70
2023-02-20T04:14:32.116Z,70.80
2023-02-20T04:17:03.367Z,70.80
2023-02-20T04:19:31.037Z,70.70
2023-02-20T04:22:02.726Z,70.70
2023-02-20T04:24:42.363Z,70.80
2023-02-20T04:27:09.654Z,70.80
2023-02-20T04:29:36.449Z,70.70
2023-02-20T04:32:03.379Z,70.80
2023-02-20T04:34:30.144Z,70.70
2023-02-20T04:37:14.939Z,70.70
2023-02-20T04:39:42.084Z,70.70
2023-02-20T04:42:08.834Z,70.60
2023-02-20T04:44:36.631Z,70.70
2023-02-20T04:47:07.282Z,70.90
2023-02-20T04:49:34.372Z,70.80
2023-02-20T04:52:01.029Z,71.40
2023-02-20T04:54:28.732Z,70.90
2023-02-20T04:56:55.425Z,71.10
2023-02-20T04:59:23.492Z,70.80
2023-02-20T05:01:52.026Z,70.90
2023-02-20T05:04:20.516Z,70.90
2023-02-20T05:06:50.692Z,70.90
2023-02-20T05:09:17.491Z,71.00
2023-02-20T05:11:44.343Z,70.80
2023-02-20T05:14:11.175Z,70.90
2023-02-20T05:16:39.056Z,70.80
2023-02-20T05:19:06.730Z,70.70
2023-02-20T05:21:52.638Z,70.50
2023-02-20T05:24:20.242Z,70.40
2023-02-20T05:26:46.897Z,70.60
2023-02-20T05:29:14.708Z,70.60
2023-02-20T05:31:42.255Z,70.60
2023-02-20T05:34:09.212Z,70.50
2023-02-20T05:36:35.865Z,70.40
2023-02-20T05:39:03.303Z,70.40
2023-02-20T05:41:30.537Z,70.40
2023-02-20T05:43:58.962Z,70.40
2023-02-20T05:46:26.857Z,70.40
2023-02-20T05:48:54.745Z,70.60
2023-02-20T05:51:31.910Z,70.30
2023-02-20T05:53:59.580Z,70.30
2023-02-20T05:56:27.855Z,70.20
2023-02-20T05:58:54.491Z,70.20
2023-02-20T06:01:29.929Z,70.70
2023-02-20T06:03:56.824Z,70.40
2023-02-20T06:06:24.457Z,70.30
2023-02-20T06:08:51.238Z,69.90
2023-02-20T06:11:17.896Z,69.70
2023-02-20T06:13:45.525Z,70.00
2023-02-20T06:16:13.743Z,69.70
2023-02-20T06:18:42.246Z,69.50
2023-02-20T06:21:10.439Z,69.40
2023-02-20T06:23:38.589Z,69.40
2023-02-20T06:26:06.808Z,69.60
2023-02-20T06:28:33.744Z,69.40
2023-02-20T06:31:02.064Z,69.20
2023-02-20T06:33:29.483Z,69.30
2023-02-20T06:35:56.590Z,69.50
2023-02-20T06:38:24.029Z,69.60
2023-02-20T06:40:51.684Z,69.60
2023-02-20T06:43:19.236Z,69.40
2023-02-20T06:45:46.424Z,69.40
2023-02-20T06:48:17.330Z,69.50
2023-02-20T06:50:44.026Z,69.50
2023-02-20T06:53:10.750Z,69.40
2023-02-20T06:55:37.426Z,69.60
2023-02-20T06:58:14.259Z,69.60
2023-02-20T07:00:41.078Z,69.60
2023-02-20T07:03:07.828Z,69.70
2023-02-20T07:05:34.591Z,69.60
2023-02-20T07:08:01.404Z,69.70
2023-02-20T07:10:28.143Z,69.50
2023-02-20T07:12:55.770Z,69.30
2023-02-20T07:15:22.521Z,69.40
2023-02-20T07:17:49.183Z,69.60
2023-02-20T07:20:16.106Z,69.60
2023-02-20T07:22:54.299Z,69.40
2023-02-20T07:25:21.318Z,69.40
2023-02-20T07:27:48.049Z,69.20
2023-02-20T07:30:14.813Z,69.00
2023-02-20T07:32:41.518Z,69.10
2023-02-20T07:35:09.589Z,69.20
2023-02-20T07:37:36.446Z,69.00
2023-02-20T07:40:03.562Z,69.10
2023-02-20T07:42:30.174Z,69.00
2023-02-20T07:44:56.866Z,69.10
2023-02-20T07:47:23.631Z,69.00
2023-02-20T07:49:50.327Z,69.10
2023-02-20T07:52:16.982Z,69.10
2023-02-20T07:54:43.722Z,69.20
2023-02-20T07:57:10.484Z,69.20
2023-02-20T07:59:37.225Z,69.20
2023-02-20T08:02:04.285Z,69.20
2023-02-20T08:04:30.978Z,69.30
2023-02-20T08:06:59.717Z,69.30
2023-02-20T08:09:26.375Z,69.40
2023-02-20T08:11:53.090Z,69.60
2023-02-20T08:14:19.821Z,69.50
2023-02-20T08:16:46.543Z,69.60
2023-02-20T08:19:13.293Z,69.90
2023-02-20T08:21:40.020Z,69.90
2023-02-20T08:24:07.055Z,70.10
2023-02-20T08:26:34.863Z,70.20
2023-02-20T08:29:03.671Z,70.40
2023-02-20T08:31:32.881Z,70.70
2023-02-20T08:34:00.221Z,70.70
2023-02-20T08:36:27.206Z,70.90
2023-02-20T08:38:54.908Z,71.20
2023-02-20T08:41:21.731Z,71.40
2023-02-20T08:43:48.538Z,71.40
2023-02-20T08:46:15.871Z,71.60
2023-02-20T08:48:43.349Z,71.70
2023-02-20T08:51:10.548Z,71.80
2023-02-20T08:53:38.999Z,71.70
2023-02-20T08:56:06.946Z,71.60
2023-02-20T08:58:33.670Z,71.20
2023-02-20T09:01:00.536Z,71.10
2023-02-20T09:03:27.410Z,71.00
2023-02-20T09:05:54.238Z,71.10
2023-02-20T09:08:20.905Z,71.10
2023-02-20T09:10:47.993Z,71.40
2023-02-20T09:13:14.862Z,71.20
2023-02-20T09:15:41.722Z,70.90
2023-02-20T09:18:12.555Z,71.00
2023-02-20T09:20:39.858Z,71.30
2023-02-20T09:23:07.181Z,71.20
2023-02-20T09:25:34.344Z,71.30
2023-02-20T09:28:01.115Z,71.00
2023-02-20T09:30:28.383Z,70.90
2023-02-20T09:32:55.122Z,71.00
2023-02-20T09:35:26.432Z,70.90
2023-02-20T09:37:53.299Z,71.00
2023-02-20T09:40:27.533Z,70.90
2023-02-20T09:43:05.846Z,70.80
2023-02-20T09:45:34.257Z,70.90
2023-02-20T09:48:33.869Z,71.00
2023-02-20T09:51:05.056Z,71.20
2023-02-20T09:53:37.915Z,71.00
2023-02-20T09:56:11.342Z,70.90
2023-02-20T09:58:49.926Z,71.10
2023-02-20T10:01:21.892Z,71.10
2023-02-20T10:04:15.001Z,71.10
2023-02-20T10:06:41.745Z,71.30
2023-02-20T10:09:13.231Z,71.40
2023-02-20T10:12:08.825Z,71.40
2023-02-20T10:14:54.034Z,71.50
2023-02-20T10:17:32.648Z,71.30
2023-02-20T10:20:05.802Z,71.50
2023-02-20T10:22:34.044Z,71.00
2023-02-20T10:25:19.611Z,71.00
2023-02-20T10:28:04.881Z,70.90
2023-02-20T10:30:31.868Z,71.00
2023-02-20T10:33:14.398Z,70.80
2023-02-20T10:35:53.238Z,70.80
2023-02-20T10:38:24.881Z,70.70
2023-02-20T10:41:06.760Z,70.40
2023-02-20T10:43:54.795Z,70.60
2023-02-20T10:46:48.513Z,70.80
2023-02-20T10:49:35.336Z,70.40
2023-02-20T10:52:05.516Z,70.80
2023-02-20T10:54:44.791Z,71.00
2023-02-20T10:57:18.938Z,71.10
2023-02-20T10:59:52.591Z,71.30
2023-02-20T11:02:24.487Z,70.90
2023-02-20T11:05:03.153Z,70.50
2023-02-20T11:07:29.901Z,71.00
2023-02-20T11:09:56.599Z,71.00
2023-02-20T11:12:32.496Z,71.10
2023-02-20T11:15:09.576Z,71.00
2023-02-20T11:17:39.457Z,71.00
2023-02-20T11:20:27.649Z,70.90
2023-02-20T11:22:54.331Z,70.50
2023-02-20T11:25:27.395Z,70.50
2023-02-20T11:27:57.184Z,70.60
2023-02-20T11:30:32.195Z,70.70
2023-02-20T11:33:04.240Z,70.50
2023-02-20T11:35:37.438Z,70.50
2023-02-20T11:38:19.048Z,70.90
2023-02-20T11:40:53.263Z,70.70
2023-02-20T11:43:25.222Z,70.60
2023-02-20T11:46:09.485Z,70.80
2023-02-20T11:48:37.442Z,70.60
2023-02-20T11:51:06.361Z,70.50
2023-02-20T11:53:33.894Z,70.60
2023-02-20T11:56:26.998Z,70.20
2023-02-20T11:58:53.709Z,70.20
2023-02-20T12:01:38.049Z,70.40
2023-02-20T12:04:19.591Z,70.30
2023-02-20T12:06:46.263Z,70.20
2023-02-20T12:09:26.040Z,69.60
2023-02-20T12:11:57.258Z,69.70
2023-02-20T12:14:24.836Z,69.70
2023-02-20T12:17:20.041Z,70.00
2023-02-20T12:20:20.721Z,69.50
2023-02-20T12:23:20.542Z,69.40
2023-02-20T12:26:02.130Z,69.80
2023-02-20T12:28:35.059Z,70.30
2023-02-20T12:31:05.765Z,70.10
2023-02-20T12:33:44.544Z,70.00
2023-02-20T12:36:24.190Z,70.10
2023-02-20T12:39:02.491Z,70.80
2023-02-20T12:42:02.989Z,70.40
2023-02-20T12:44:49.494Z,70.40
2023-02-20T12:47:38.427Z,69.90
2023-02-20T12:50:26.160Z,70.20
2023-02-20T12:53:10.260Z,69.80
2023-02-20T12:56:05.744Z,69.70
2023-02-20T12:58:45.363Z,69.90
2023-02-20T13:01:14.397Z,70.00
2023-02-20T13:03:59.193Z,70.60
2023-02-20T13:07:05.327Z,69.60
2023-02-20T13:09:37.219Z,69.50
2023-02-20T13:12:12.679Z,69.60
2023-02-20T13:14:55.249Z,69.60
2023-02-20T13:17:44.844Z,69.20
2023-02-20T13:20:25.271Z,69.10
2023-02-20T13:23:25.534Z,69.30
2023-02-20T13:25:54.099Z,69.30
2023-02-20T13:28:20.806Z,69.10
2023-02-20T13:31:07.377Z,69.30
2023-02-20T13:33:36.431Z,69.30
2023-02-20T13:36:04.625Z,69.50
2023-02-20T13:38:31.727Z,69.30
2023-02-20T13:40:58.898Z,69.20
2023-02-20T13:43:30.420Z,69.20
2023-02-20T13:46:11.512Z,69.10
2023-02-20T13:48:42.137Z,69.40
2023-02-20T13:51:14.663Z,69.10
2023-02-20T13:53:42.236Z,69.10
2023-02-20T13:56:19.372Z,69.00
2023-02-20T13:58:48.531Z,69.10
2023-02-20T14:01:16.665Z,68.90
2023-02-20T14:03:43.386Z,69.00
2023-02-20T14:06:13.147Z,68.90
2023-02-20T14:08:42.776Z,69.00
2023-02-20T14:11:12.666Z,68.80
2023-02-20T14:13:44.101Z,68.90
2023-02-20T14:16:24.327Z,68.90
2023-02-20T14:18:51.144Z,68.70
2023-02-20T14:21:20.510Z,68.60
2023-02-20T14:23:49.579Z,68.80
2023-02-20T14:26:25.345Z,68.60
2023-02-20T14:28:55.230Z,68.50
2023-02-20T14:31:37.384Z,68.60
2023-02-20T14:34:24.316Z,68.90
2023-02-20T14:37:09.885Z,68.90
2023-02-20T14:40:04.399Z,68.50
2023-02-20T14:42:31.440Z,68.30
2023-02-20T14:45:04.880Z,68.20
2023-02-20T14:47:32.478Z,67.80
2023-02-20T14:50:30.262Z,67.70
2023-02-20T14:53:20.856Z,67.90
2023-02-20T14:55:50.354Z,67.70
2023-02-20T14:58:23.244Z,67.60
2023-02-20T15:00:50.133Z,67.30
2023-02-20T15:03:30.549Z,67.80
2023-02-20T15:06:02.763Z,67.90
2023-02-20T15:08:37.853Z,68.20
2023-02-20T15:11:13.606Z,67.80
2023-02-20T15:13:45.643Z,67.90
2023-02-20T15:16:21.861Z,67.80
2023-02-20T15:18:50.392Z,67.70
2023-02-20T15:21:32.281Z,67.50
2023-02-20T15:24:24.603Z,67.60
2023-02-20T15:26:51.912Z,67.30
2023-02-20T15:29:22.826Z,67.10
2023-02-20T15:32:03.655Z,67.00
2023-02-20T15:34:34.322Z,67.00
2023-02-20T15:37:02.016Z,66.80
2023-02-20T15:39:28.770Z,67.20
2023-02-20T15:44:22.258Z,67.20
2023-02-20T15:46:49.085Z,67.50
2023-02-20T15:49:20.504Z,67.20
2023-02-20T15:51:50.726Z,67.20
2023-02-20T15:54:19.064Z,67.20
2023-02-20T15:56:47.372Z,67.30
2023-02-20T15:59:14.830Z,67.50
2023-02-20T16:01:41.657Z,67.50
2023-02-20T16:04:09.257Z,67.50
2023-02-20T16:06:36.352Z,67.60
2023-02-20T16:09:03.462Z,67.50
2023-02-20T16:11:39.374Z,67.50
2023-02-20T16:14:06.556Z,67.50
2023-02-20T16:16:37.854Z,67.70
2023-02-20T16:19:14.726Z,67.40
2023-02-20T16:21:50.046Z,67.20
2023-02-20T16:24:24.685Z,67.10
2023-02-20T16:26:51.518Z,67.00
2023-02-20T16:29:22.429Z,67.00
2023-02-20T16:31:55.033Z,67.00
2023-02-20T16:34:27.194Z,67.20
2023-02-20T16:36:54.154Z,67.50
2023-02-20T16:39:27.079Z,67.30
2023-02-20T16:41:55.479Z,67.40
2023-02-20T16:44:33.747Z,67.50
2023-02-20T16:47:00.873Z,67.20
2023-02-20T16:49:27.943Z,67.20
2023-02-20T16:52:01.485Z,67.30
2023-02-20T16:54:28.776Z,67.40
2023-02-20T16:56:55.927Z,67.50
2023-02-20T16:59:22.675Z,67.40
2023-02-20T17:01:51.594Z,67.40
2023-02-20T17:04:19.764Z,67.40
2023-02-20T17:06:47.207Z,67.40
2023-02-20T17:09:14.646Z,67.40
2023-02-20T17:11:41.900Z,67.60
2023-02-20T17:14:09.532Z,67.50
2023-02-20T17:16:36.212Z,67.20
2023-02-20T17:19:03.997Z,67.00
2023-02-20T17:21:30.771Z,66.90
2023-02-20T17:23:57.564Z,66.70
2023-02-20T17:26:26.718Z,66.60
2023-02-20T17:28:53.530Z,67.10
2023-02-20T17:31:22.095Z,66.30
2023-02-20T17:33:48.840Z,66.30
2023-02-20T17:36:15.758Z,66.50
2023-02-20T17:38:43.147Z,66.30
2023-02-20T17:41:09.933Z,66.40
2023-02-20T17:43:38.383Z,66.60
2023-02-20T17:46:05.251Z,67.10
2023-02-20T17:48:32.137Z,66.80
2023-02-20T17:50:59.450Z,66.80
2023-02-20T17:53:27.288Z,66.80
2023-02-20T17:55:53.990Z,66.90
2023-02-20T17:58:20.692Z,67.00
2023-02-20T18:00:47.400Z,66.90
2023-02-20T18:03:14.117Z,67.00
2023-02-20T18:05:40.886Z,66.80
2023-02-20T18:08:07.676Z,66.70
2023-02-20T18:10:34.414Z,66.60
2023-02-20T18:13:03.924Z,66.60
2023-02-20T18:15:35.983Z,66.60
2023-02-20T18:18:03.988Z,66.70
2023-02-20T18:20:31.034Z,66.60
2023-02-20T18:22:58.368Z,66.70
2023-02-20T18:25:39.122Z,66.80
2023-02-20T18:28:07.540Z,66.70
2023-02-20T18:30:34.668Z,66.80
2023-02-20T18:33:01.721Z,67.00
2023-02-20T18:35:28.788Z,66.90
2023-02-20T18:37:56.614Z,66.90
2023-02-20T18:40:24.176Z,67.00
2023-02-20T18:42:51.584Z,67.30
2023-02-20T18:45:19.022Z,67.50
2023-02-20T18:47:53.590Z,67.40
2023-02-20T18:50:20.900Z,67.70
2023-02-20T18:52:48.851Z,67.70
2023-02-20T18:55:20.247Z,67.90
2023-02-20T18:57:48.212Z,68.00
2023-02-20T19:00:20.612Z,68.20
2023-02-20T19:02:50.032Z,68.20
2023-02-20T19:05:17.101Z,68.30
2023-02-20T19:07:45.974Z,68.10
2023-02-20T19:10:17.251Z,68.20
2023-02-20T19:12:44.102Z,68.20
2023-02-20T19:15:11.181Z,68.40
2023-02-20T19:17:38.563Z,68.60
2023-02-20T19:20:07.961Z,68.80
2023-02-20T19:22:34.831Z,68.80
2023-02-20T19:25:01.609Z,68.70
2023-02-20T19:27:28.370Z,68.80
2023-02-20T19:29:55.628Z,68.90
2023-02-20T19:32:22.449Z,68.90
2023-02-20T19:34:49.600Z,68.80
2023-02-20T19:37:17.137Z,68.70
2023-02-20T19:39:43.885Z,68.50
2023-02-20T19:42:10.802Z,68.90
2023-02-20T19:44:38.639Z,69.10
2023-02-20T19:47:06.309Z,68.80
2023-02-20T19:49:33.664Z,68.80
2023-02-20T19:52:00.937Z,68.80
2023-02-20T19:54:29.879Z,69.00
2023-02-20T19:56:59.689Z,69.20
2023-02-20T19:59:27.342Z,69.30
2023-02-20T20:01:56.588Z,69.40
2023-02-20T20:04:26.470Z,69.30
2023-02-20T20:06:53.809Z,69.40
2023-02-20T20:09:35.125Z,69.50
2023-02-20T20:12:03.538Z,69.50
2023-02-20T20:14:30.232Z,69.60
2023-02-20T20:16:58.073Z,69.60
2023-02-20T20:19:24.943Z,69.70
2023-02-20T20:21:51.746Z,69.80
2023-02-20T20:24:18.844Z,69.70
2023-02-20T20:26:45.632Z,69.80
2023-02-20T20:29:12.380Z,69.90
2023-02-20T20:31:41.606Z,69.70
2023-02-20T20:34:09.389Z,69.50
2023-02-20T20:36:36.222Z,69.60
2023-02-20T20:39:04.384Z,69.70
2023-02-20T20:41:43.872Z,70.00
2023-02-20T20:44:13.490Z,70.00
2023-02-20T20:46:40.185Z,70.00
2023-02-20T20:49:07.284Z,69.80
2023-02-20T20:51:33.939Z,69.80
2023-02-20T20:54:00.679Z,69.90
2023-02-20T20:56:27.496Z,70.40
2023-02-20T20:58:54.307Z,70.10
2023-02-20T21:01:21.081Z,70.10
2023-02-20T21:03:47.792Z,70.10
2023-02-20T21:08:41.551Z,70.10
2023-02-20T21:11:08.402Z,70.40
2023-02-20T21:13:35.127Z,70.40
2023-02-20T21:16:01.933Z,70.30
2023-02-20T21:18:28.634Z,70.20
2023-02-20T21:20:55.445Z,70.10
2023-02-20T21:23:22.333Z,70.20
2023-02-20T21:25:49.054Z,70.30
2023-02-20T21:28:15.832Z,70.20
2023-02-20T21:30:42.665Z,70.30
2023-02-20T21:33:09.428Z,70.40
2023-02-20T21:35:36.118Z,70.20
2023-02-20T21:38:03.188Z,70.30
2023-02-20T21:40:29.960Z,70.30
2023-02-20T21:43:15.253Z,70.40
2023-02-20T21:45:41.989Z,70.10
2023-02-20T21:48:08.643Z,70.10
2023-02-20T21:50:35.407Z,70.70
2023-02-20T21:53:02.337Z,70.10
2023-02-20T21:55:29.399Z,70.20
2023-02-20T21:57:56.476Z,70.30
2023-02-20T22:00:23.553Z,70.90
2023-02-20T22:02:50.228Z,70.30
2023-02-20T22:05:17.041Z,70.30
2023-02-20T22:08:02.219Z,70.20
2023-02-20T22:10:47.632Z,70.10
2023-02-20T22:13:33.132Z,70.10
2023-02-20T22:16:18.573Z,69.90
2023-02-20T22:19:03.933Z,69.80
2023-02-20T22:21:49.284Z,69.90
2023-02-20T22:24:38.518Z,70.50
2023-02-20T22:27:26.580Z,70.30
2023-02-20T22:30:12.310Z,70.10
2023-02-20T22:32:58.109Z,70.40
2023-02-20T22:35:43.589Z,70.50
2023-02-20T22:38:29.927Z,70.40
2023-02-20T22:41:15.592Z,70.70
2023-02-20T22:44:01.297Z,70.20
2023-02-20T22:46:46.685Z,70.10
2023-02-20T22:49:31.931Z,70.00
2023-02-20T22:52:17.530Z,70.10
2023-02-20T22:55:05.224Z,70.20
2023-02-20T22:57:51.198Z,70.10
2023-02-20T23:00:36.765Z,70.00
2023-02-20T23:03:22.145Z,70.10
2023-02-20T23:06:17.509Z,70.00
2023-02-20T23:09:05.337Z,69.80
2023-02-20T23:11:54.939Z,69.80
2023-02-20T23:14:40.748Z,70.00
2023-02-20T23:17:36.908Z,70.00
2023-02-20T23:20:24.974Z,70.00
2023-02-20T23:23:10.438Z,70.00
2023-02-20T23:25:55.677Z,69.90
2023-02-20T23:28:41.241Z,70.00
2023-02-20T23:31:26.901Z,70.00
2023-02-20T23:34:12.132Z,69.90
2023-02-20T23:36:57.663Z,69.80
2023-02-20T23:39:43.129Z,69.90
2023-02-20T23:42:28.765Z,69.90
2023-02-20T23:45:14.235Z,69.90
2023-02-20T23:47:59.653Z,69.90
2023-02-20T23:50:45.170Z,69.90
2023-02-20T23:53:30.540Z,69.90
2023-02-20T23:56:16.080Z,69.90
2023-02-20T23:59:01.617Z,69.90
